sensor_id;sensor_type;location;lat;lon;timestamp;temperature;humidity
31046;DHT22;17711;54.018;9.300;2022-12-18T00:00:21;-6.80;99.90
31046;DHT22;17711;54.018;9.300;2022-12-18T00:02:50;-6.90;99.90
31046;DHT22;17711;54.018;9.300;2022-12-18T00:05:20;-6.90;99.90
31046;DHT22;17711;54.018;9.300;2022-12-18T00:07:48;-6.90;99.90
31046;DHT22;17711;54.018;9.300;2022-12-18T00:10:20;-6.80;99.90
31046;DHT22;17711;54.018;9.300;2022-12-18T00:12:48;-6.80;99.90
31046;DHT22;17711;54.018;9.300;2022-12-18T00:15:17;-6.90;99.90
31046;DHT22;17711;54.018;9.300;2022-12-18T00:17:45;-7.00;99.90
31046;DHT22;17711;54.018;9.300;2022-12-18T00:20:14;-7.00;99.90
31046;DHT22;17711;54.018;9.300;2022-12-18T00:22:49;-7.00;99.90
31046;DHT22;17711;54.018;9.300;2022-12-18T00:25:17;-7.10;99.90
31046;DHT22;17711;54.018;9.300;2022-12-18T00:27:46;-7.20;99.90
31046;DHT22;17711;54.018;9.300;2022-12-18T00:30:15;-7.20;99.90
31046;DHT22;17711;54.018;9.300;2022-12-18T00:32:43;-7.20;99.90
31046;DHT22;17711;54.018;9.300;2022-12-18T00:35:12;-7.20;99.90
31046;DHT22;17711;54.018;9.300;2022-12-18T00:37:41;-7.10;99.90
31046;DHT22;17711;54.018;9.300;2022-12-18T00:40:12;-7.10;99.90
31046;DHT22;17711;54.018;9.300;2022-12-18T00:42:40;-7.10;99.90
31046;DHT22;17711;54.018;9.300;2022-12-18T00:45:26;-7.10;99.90
31046;DHT22;17711;54.018;9.300;2022-12-18T00:47:55;-7.10;99.90
31046;DHT22;17711;54.018;9.300;2022-12-18T00:50:25;-7.10;99.90
31046;DHT22;17711;54.018;9.300;2022-12-18T00:52:54;-7.10;99.90
31046;DHT22;17711;54.018;9.300;2022-12-18T00:55:23;-7.10;99.90
31046;DHT22;17711;54.018;9.300;2022-12-18T00:57:52;-7.10;99.90
31046;DHT22;17711;54.018;9.300;2022-12-18T01:00:21;-7.10;99.90
31046;DHT22;17711;54.018;9.300;2022-12-18T01:02:50;-7.10;99.90
31046;DHT22;17711;54.018;9.300;2022-12-18T01:05:19;-7.00;99.90
31046;DHT22;17711;54.018;9.300;2022-12-18T01:07:47;-6.90;99.90
31046;DHT22;17711;54.018;9.300;2022-12-18T01:10:16;-6.90;99.90
31046;DHT22;17711;54.018;9.300;2022-12-18T01:12:46;-6.80;99.90
31046;DHT22;17711;54.018;9.300;2022-12-18T01:15:15;-6.80;99.90
31046;DHT22;17711;54.018;9.300;2022-12-18T01:17:44;-6.70;99.90
31046;DHT22;17711;54.018;9.300;2022-12-18T01:20:13;-6.80;99.90
31046;DHT22;17711;54.018;9.300;2022-12-18T01:22:42;-6.80;99.90
31046;DHT22;17711;54.018;9.300;2022-12-18T01:25:10;-6.80;99.90
31046;DHT22;17711;54.018;9.300;2022-12-18T01:27:39;-6.80;99.90
31046;DHT22;17711;54.018;9.300;2022-12-18T01:30:10;-6.90;99.90
31046;DHT22;17711;54.018;9.300;2022-12-18T01:32:39;-7.00;99.90
31046;DHT22;17711;54.018;9.300;2022-12-18T01:35:08;-7.00;99.90
31046;DHT22;17711;54.018;9.300;2022-12-18T01:37:36;-7.00;99.90
31046;DHT22;17711;54.018;9.300;2022-12-18T01:40:06;-6.90;99.90
31046;DHT22;17711;54.018;9.300;2022-12-18T01:42:35;-6.90;99.90
31046;DHT22;17711;54.018;9.300;2022-12-18T01:45:22;-6.90;99.90
31046;DHT22;17711;54.018;9.300;2022-12-18T01:47:54;-6.80;99.90
31046;DHT22;17711;54.018;9.300;2022-12-18T01:50:25;-6.80;99.90
31046;DHT22;17711;54.018;9.300;2022-12-18T01:52:58;-6.90;99.90
31046;DHT22;17711;54.018;9.300;2022-12-18T01:55:31;-6.80;99.90
31046;DHT22;17711;54.018;9.300;2022-12-18T01:58:00;-6.80;99.90
31046;DHT22;17711;54.018;9.300;2022-12-18T02:00:31;-6.80;99.90
31046;DHT22;17711;54.018;9.300;2022-12-18T02:02:59;-6.80;99.90
31046;DHT22;17711;54.018;9.300;2022-12-18T02:05:36;-6.70;99.90
31046;DHT22;17711;54.018;9.300;2022-12-18T02:08:10;-6.70;99.90
31046;DHT22;17711;54.018;9.300;2022-12-18T02:10:46;-6.80;99.90
31046;DHT22;17711;54.018;9.300;2022-12-18T02:13:20;-6.80;99.90
31046;DHT22;17711;54.018;9.300;2022-12-18T02:15:58;-6.80;99.90
31046;DHT22;17711;54.018;9.300;2022-12-18T02:18:33;-6.70;99.90
31046;DHT22;17711;54.018;9.300;2022-12-18T02:21:10;-6.70;99.90
31046;DHT22;17711;54.018;9.300;2022-12-18T02:23:48;-6.70;99.90
31046;DHT22;17711;54.018;9.300;2022-12-18T02:26:26;-6.50;99.90
31046;DHT22;17711;54.018;9.300;2022-12-18T02:28:59;-6.50;99.90
31046;DHT22;17711;54.018;9.300;2022-12-18T02:31:32;-6.50;99.90
31046;DHT22;17711;54.018;9.300;2022-12-18T02:34:05;-6.50;99.90
31046;DHT22;17711;54.018;9.300;2022-12-18T02:36:37;-6.60;99.90
31046;DHT22;17711;54.018;9.300;2022-12-18T02:39:09;-6.70;99.90
31046;DHT22;17711;54.018;9.300;2022-12-18T02:41:40;-6.70;99.90
31046;DHT22;17711;54.018;9.300;2022-12-18T02:44:10;-6.60;99.90
31046;DHT22;17711;54.018;9.300;2022-12-18T02:46:41;-6.60;99.90
31046;DHT22;17711;54.018;9.300;2022-12-18T02:49:18;-6.70;99.90
31046;DHT22;17711;54.018;9.300;2022-12-18T02:51:52;-6.70;99.90
31046;DHT22;17711;54.018;9.300;2022-12-18T02:54:36;-6.60;99.90
31046;DHT22;17711;54.018;9.300;2022-12-18T02:57:15;-6.60;99.90
31046;DHT22;17711;54.018;9.300;2022-12-18T02:59:53;-6.70;99.90
31046;DHT22;17711;54.018;9.300;2022-12-18T03:02:27;-6.70;99.90
31046;DHT22;17711;54.018;9.300;2022-12-18T03:05:02;-6.70;99.90
31046;DHT22;17711;54.018;9.300;2022-12-18T03:07:37;-6.60;99.90
31046;DHT22;17711;54.018;9.300;2022-12-18T03:10:09;-6.60;99.90
31046;DHT22;17711;54.018;9.300;2022-12-18T03:12:44;-6.60;99.90
31046;DHT22;17711;54.018;9.300;2022-12-18T03:15:18;-6.50;99.90
31046;DHT22;17711;54.018;9.300;2022-12-18T03:17:52;-6.40;99.90
31046;DHT22;17711;54.018;9.300;2022-12-18T03:20:24;-6.40;99.90
31046;DHT22;17711;54.018;9.300;2022-12-18T03:22:58;-6.50;99.90
31046;DHT22;17711;54.018;9.300;2022-12-18T03:25:28;-6.60;99.90
31046;DHT22;17711;54.018;9.300;2022-12-18T03:28:01;-6.70;99.90
31046;DHT22;17711;54.018;9.300;2022-12-18T03:30:32;-6.80;99.90
31046;DHT22;17711;54.018;9.300;2022-12-18T03:33:05;-6.90;99.90
31046;DHT22;17711;54.018;9.300;2022-12-18T03:35:38;-6.90;99.90
31046;DHT22;17711;54.018;9.300;2022-12-18T03:38:08;-7.00;99.90
31046;DHT22;17711;54.018;9.300;2022-12-18T03:40:45;-7.10;99.90
31046;DHT22;17711;54.018;9.300;2022-12-18T03:43:20;-7.10;99.90
31046;DHT22;17711;54.018;9.300;2022-12-18T03:45:58;-7.00;99.90
31046;DHT22;17711;54.018;9.300;2022-12-18T03:48:32;-7.00;99.90
31046;DHT22;17711;54.018;9.300;2022-12-18T03:51:07;-7.10;99.90
31046;DHT22;17711;54.018;9.300;2022-12-18T03:53:42;-7.10;99.90
31046;DHT22;17711;54.018;9.300;2022-12-18T03:56:14;-7.20;99.90
31046;DHT22;17711;54.018;9.300;2022-12-18T03:58:46;-7.20;99.90
31046;DHT22;17711;54.018;9.300;2022-12-18T04:01:16;-7.20;99.90
31046;DHT22;17711;54.018;9.300;2022-12-18T04:03:48;-7.20;99.90
31046;DHT22;17711;54.018;9.300;2022-12-18T04:06:17;-7.20;99.90
31046;DHT22;17711;54.018;9.300;2022-12-18T04:08:47;-7.20;99.90
31046;DHT22;17711;54.018;9.300;2022-12-18T04:11:15;-7.20;99.90
31046;DHT22;17711;54.018;9.300;2022-12-18T04:13:46;-7.20;99.90
31046;DHT22;17711;54.018;9.300;2022-12-18T04:16:14;-7.20;99.90
31046;DHT22;17711;54.018;9.300;2022-12-18T04:18:43;-7.20;99.90
31046;DHT22;17711;54.018;9.300;2022-12-18T04:21:12;-7.20;99.90
31046;DHT22;17711;54.018;9.300;2022-12-18T04:23:40;-7.30;99.90
31046;DHT22;17711;54.018;9.300;2022-12-18T04:26:09;-7.30;99.90
31046;DHT22;17711;54.018;9.300;2022-12-18T04:28:37;-7.30;99.90
31046;DHT22;17711;54.018;9.300;2022-12-18T04:31:07;-7.30;99.90
31046;DHT22;17711;54.018;9.300;2022-12-18T04:33:36;-7.30;99.90
31046;DHT22;17711;54.018;9.300;2022-12-18T04:36:06;-7.30;99.90
31046;DHT22;17711;54.018;9.300;2022-12-18T04:38:34;-7.30;99.90
31046;DHT22;17711;54.018;9.300;2022-12-18T04:41:03;-7.30;99.90
31046;DHT22;17711;54.018;9.300;2022-12-18T04:43:32;-7.30;99.90
31046;DHT22;17711;54.018;9.300;2022-12-18T04:46:04;-7.40;99.90
31046;DHT22;17711;54.018;9.300;2022-12-18T04:48:35;-7.40;99.90
31046;DHT22;17711;54.018;9.300;2022-12-18T04:51:04;-7.40;99.90
31046;DHT22;17711;54.018;9.300;2022-12-18T04:53:33;-7.40;99.90
31046;DHT22;17711;54.018;9.300;2022-12-18T04:56:04;-7.40;99.90
31046;DHT22;17711;54.018;9.300;2022-12-18T04:58:33;-7.30;99.90
31046;DHT22;17711;54.018;9.300;2022-12-18T05:01:01;-7.30;99.90
31046;DHT22;17711;54.018;9.300;2022-12-18T05:03:31;-7.30;99.90
31046;DHT22;17711;54.018;9.300;2022-12-18T05:06:01;-7.20;99.90
31046;DHT22;17711;54.018;9.300;2022-12-18T05:08:30;-7.20;99.90
31046;DHT22;17711;54.018;9.300;2022-12-18T05:10:59;-7.20;99.90
31046;DHT22;17711;54.018;9.300;2022-12-18T05:13:28;-7.10;99.90
31046;DHT22;17711;54.018;9.300;2022-12-18T05:15:57;-7.20;99.90
31046;DHT22;17711;54.018;9.300;2022-12-18T05:18:26;-7.20;99.90
31046;DHT22;17711;54.018;9.300;2022-12-18T05:20:55;-7.20;99.90
31046;DHT22;17711;54.018;9.300;2022-12-18T05:23:25;-7.20;99.90
31046;DHT22;17711;54.018;9.300;2022-12-18T05:25:55;-7.30;99.90
31046;DHT22;17711;54.018;9.300;2022-12-18T05:28:26;-7.20;99.90
31046;DHT22;17711;54.018;9.300;2022-12-18T05:30:56;-7.20;99.90
31046;DHT22;17711;54.018;9.300;2022-12-18T05:33:26;-7.20;99.90
31046;DHT22;17711;54.018;9.300;2022-12-18T05:35:56;-7.20;99.90
31046;DHT22;17711;54.018;9.300;2022-12-18T05:38:28;-7.20;99.90
31046;DHT22;17711;54.018;9.300;2022-12-18T05:40:59;-7.20;99.90
31046;DHT22;17711;54.018;9.300;2022-12-18T05:43:28;-7.20;99.90
31046;DHT22;17711;54.018;9.300;2022-12-18T05:45:57;-7.20;99.90
31046;DHT22;17711;54.018;9.300;2022-12-18T05:48:25;-7.20;99.90
31046;DHT22;17711;54.018;9.300;2022-12-18T05:50:54;-7.20;99.90
31046;DHT22;17711;54.018;9.300;2022-12-18T05:53:23;-7.20;99.90
31046;DHT22;17711;54.018;9.300;2022-12-18T05:55:53;-7.20;99.90
31046;DHT22;17711;54.018;9.300;2022-12-18T05:58:21;-7.20;99.90
31046;DHT22;17711;54.018;9.300;2022-12-18T06:00:50;-7.20;99.90
31046;DHT22;17711;54.018;9.300;2022-12-18T06:03:18;-7.20;99.90
31046;DHT22;17711;54.018;9.300;2022-12-18T06:05:47;-7.30;99.90
31046;DHT22;17711;54.018;9.300;2022-12-18T06:08:16;-7.20;99.90
31046;DHT22;17711;54.018;9.300;2022-12-18T06:10:50;-7.20;99.90
31046;DHT22;17711;54.018;9.300;2022-12-18T06:13:21;-7.10;99.90
31046;DHT22;17711;54.018;9.300;2022-12-18T06:15:49;-6.90;99.90
31046;DHT22;17711;54.018;9.300;2022-12-18T06:18:18;-6.80;99.90
31046;DHT22;17711;54.018;9.300;2022-12-18T06:20:54;-6.70;99.90
31046;DHT22;17711;54.018;9.300;2022-12-18T06:23:24;-6.70;99.90
31046;DHT22;17711;54.018;9.300;2022-12-18T06:25:52;-6.60;99.90
31046;DHT22;17711;54.018;9.300;2022-12-18T06:28:22;-6.60;99.90
31046;DHT22;17711;54.018;9.300;2022-12-18T06:30:51;-6.70;99.90
31046;DHT22;17711;54.018;9.300;2022-12-18T06:33:20;-6.70;99.90
31046;DHT22;17711;54.018;9.300;2022-12-18T06:35:48;-6.80;99.90
31046;DHT22;17711;54.018;9.300;2022-12-18T06:38:17;-6.90;99.90
31046;DHT22;17711;54.018;9.300;2022-12-18T06:40:45;-6.90;99.90
31046;DHT22;17711;54.018;9.300;2022-12-18T06:43:14;-7.00;99.90
31046;DHT22;17711;54.018;9.300;2022-12-18T06:45:44;-7.00;99.90
31046;DHT22;17711;54.018;9.300;2022-12-18T06:48:13;-7.10;99.90
31046;DHT22;17711;54.018;9.300;2022-12-18T06:50:42;-7.10;99.90
31046;DHT22;17711;54.018;9.300;2022-12-18T06:53:10;-7.20;99.90
31046;DHT22;17711;54.018;9.300;2022-12-18T06:55:39;-7.20;99.90
31046;DHT22;17711;54.018;9.300;2022-12-18T06:58:08;-7.30;99.90
31046;DHT22;17711;54.018;9.300;2022-12-18T07:00:37;-7.30;99.90
31046;DHT22;17711;54.018;9.300;2022-12-18T07:03:07;-7.30;99.90
31046;DHT22;17711;54.018;9.300;2022-12-18T07:05:39;-7.20;99.90
31046;DHT22;17711;54.018;9.300;2022-12-18T07:08:08;-7.20;99.90
31046;DHT22;17711;54.018;9.300;2022-12-18T07:10:41;-7.20;99.90
31046;DHT22;17711;54.018;9.300;2022-12-18T07:13:15;-7.20;99.90
31046;DHT22;17711;54.018;9.300;2022-12-18T07:15:43;-7.30;99.90
31046;DHT22;17711;54.018;9.300;2022-12-18T07:18:13;-7.30;99.90
31046;DHT22;17711;54.018;9.300;2022-12-18T07:20:42;-7.40;99.90
31046;DHT22;17711;54.018;9.300;2022-12-18T07:23:11;-7.40;99.90
31046;DHT22;17711;54.018;9.300;2022-12-18T07:25:40;-7.50;99.90
31046;DHT22;17711;54.018;9.300;2022-12-18T07:28:08;-7.60;99.90
31046;DHT22;17711;54.018;9.300;2022-12-18T07:30:43;-7.60;99.90
31046;DHT22;17711;54.018;9.300;2022-12-18T07:33:15;-7.70;99.90
31046;DHT22;17711;54.018;9.300;2022-12-18T07:35:43;-7.70;99.90
31046;DHT22;17711;54.018;9.300;2022-12-18T07:38:12;-7.70;99.90
31046;DHT22;17711;54.018;9.300;2022-12-18T07:40:40;-7.70;99.90
31046;DHT22;17711;54.018;9.300;2022-12-18T07:43:09;-7.80;99.90
31046;DHT22;17711;54.018;9.300;2022-12-18T07:45:37;-7.80;99.90
31046;DHT22;17711;54.018;9.300;2022-12-18T07:48:06;-7.80;99.90
31046;DHT22;17711;54.018;9.300;2022-12-18T07:50:37;-7.90;99.90
31046;DHT22;17711;54.018;9.300;2022-12-18T07:53:05;-8.00;99.90
31046;DHT22;17711;54.018;9.300;2022-12-18T07:55:34;-8.00;99.90
31046;DHT22;17711;54.018;9.300;2022-12-18T07:58:23;-8.10;99.90
31046;DHT22;17711;54.018;9.300;2022-12-18T08:00:51;-8.20;99.90
31046;DHT22;17711;54.018;9.300;2022-12-18T08:03:20;-8.20;99.90
31046;DHT22;17711;54.018;9.300;2022-12-18T08:05:50;-8.20;99.90
31046;DHT22;17711;54.018;9.300;2022-12-18T08:08:19;-8.20;99.90
31046;DHT22;17711;54.018;9.300;2022-12-18T08:10:47;-8.20;99.90
31046;DHT22;17711;54.018;9.300;2022-12-18T08:13:16;-8.10;99.90
31046;DHT22;17711;54.018;9.300;2022-12-18T08:15:44;-8.00;99.90
31046;DHT22;17711;54.018;9.300;2022-12-18T08:18:13;-7.90;99.90
31046;DHT22;17711;54.018;9.300;2022-12-18T08:20:41;-7.90;99.90
31046;DHT22;17711;54.018;9.300;2022-12-18T08:23:11;-7.80;99.90
31046;DHT22;17711;54.018;9.300;2022-12-18T08:25:40;-7.80;99.90
31046;DHT22;17711;54.018;9.300;2022-12-18T08:28:08;-7.70;99.90
31046;DHT22;17711;54.018;9.300;2022-12-18T08:30:37;-7.60;99.90
31046;DHT22;17711;54.018;9.300;2022-12-18T08:33:06;-7.50;99.90
31046;DHT22;17711;54.018;9.300;2022-12-18T08:35:35;-7.40;99.90
31046;DHT22;17711;54.018;9.300;2022-12-18T08:38:12;-7.40;99.90
31046;DHT22;17711;54.018;9.300;2022-12-18T08:40:41;-7.30;99.90
31046;DHT22;17711;54.018;9.300;2022-12-18T08:43:10;-7.20;99.90
31046;DHT22;17711;54.018;9.300;2022-12-18T08:45:57;-7.20;99.90
31046;DHT22;17711;54.018;9.300;2022-12-18T08:48:25;-7.20;99.90
31046;DHT22;17711;54.018;9.300;2022-12-18T08:50:55;-7.20;99.90
31046;DHT22;17711;54.018;9.300;2022-12-18T08:53:25;-7.20;99.90
31046;DHT22;17711;54.018;9.300;2022-12-18T08:56:01;-7.10;99.90
31046;DHT22;17711;54.018;9.300;2022-12-18T08:58:30;-7.10;99.90
31046;DHT22;17711;54.018;9.300;2022-12-18T09:01:00;-7.10;99.90
31046;DHT22;17711;54.018;9.300;2022-12-18T09:03:29;-7.00;99.90
31046;DHT22;17711;54.018;9.300;2022-12-18T09:05:58;-7.00;99.90
31046;DHT22;17711;54.018;9.300;2022-12-18T09:08:29;-6.90;99.90
31046;DHT22;17711;54.018;9.300;2022-12-18T09:10:57;-6.80;99.90
31046;DHT22;17711;54.018;9.300;2022-12-18T09:13:26;-6.70;99.90
31046;DHT22;17711;54.018;9.300;2022-12-18T09:15:55;-6.50;99.90
31046;DHT22;17711;54.018;9.300;2022-12-18T09:18:24;-6.40;99.90
31046;DHT22;17711;54.018;9.300;2022-12-18T09:20:52;-6.00;99.90
31046;DHT22;17711;54.018;9.300;2022-12-18T09:23:21;-5.70;99.90
31046;DHT22;17711;54.018;9.300;2022-12-18T09:25:51;-5.50;99.90
31046;DHT22;17711;54.018;9.300;2022-12-18T09:28:20;-5.40;99.90
31046;DHT22;17711;54.018;9.300;2022-12-18T09:30:49;-5.20;99.90
31046;DHT22;17711;54.018;9.300;2022-12-18T09:33:17;-5.20;99.90
31046;DHT22;17711;54.018;9.300;2022-12-18T09:35:46;-5.40;99.90
31046;DHT22;17711;54.018;9.300;2022-12-18T09:38:16;-5.50;99.90
31046;DHT22;17711;54.018;9.300;2022-12-18T09:40:48;-5.60;99.90
31046;DHT22;17711;54.018;9.300;2022-12-18T09:43:20;-5.60;99.90
31046;DHT22;17711;54.018;9.300;2022-12-18T09:45:52;-5.40;99.90
31046;DHT22;17711;54.018;9.300;2022-12-18T09:48:25;-5.30;99.90
31046;DHT22;17711;54.018;9.300;2022-12-18T09:50:55;-5.20;99.90
31046;DHT22;17711;54.018;9.300;2022-12-18T09:53:27;-5.00;99.90
31046;DHT22;17711;54.018;9.300;2022-12-18T09:56:01;-5.00;99.90
31046;DHT22;17711;54.018;9.300;2022-12-18T09:58:33;-4.90;99.90
31046;DHT22;17711;54.018;9.300;2022-12-18T10:01:10;-4.70;99.90
31046;DHT22;17711;54.018;9.300;2022-12-18T10:03:40;-4.50;99.90
31046;DHT22;17711;54.018;9.300;2022-12-18T10:06:13;-4.40;99.90
31046;DHT22;17711;54.018;9.300;2022-12-18T10:08:49;-4.20;99.90
31046;DHT22;17711;54.018;9.300;2022-12-18T10:11:33;-4.00;99.90
31046;DHT22;17711;54.018;9.300;2022-12-18T10:14:09;-3.90;99.90
31046;DHT22;17711;54.018;9.300;2022-12-18T10:16:46;-3.90;99.90
31046;DHT22;17711;54.018;9.300;2022-12-18T10:19:23;-3.90;99.90
31046;DHT22;17711;54.018;9.300;2022-12-18T10:22:00;-4.00;99.90
31046;DHT22;17711;54.018;9.300;2022-12-18T10:24:36;-4.00;99.90
31046;DHT22;17711;54.018;9.300;2022-12-18T10:27:14;-3.90;99.90
31046;DHT22;17711;54.018;9.300;2022-12-18T10:29:45;-3.70;99.90
31046;DHT22;17711;54.018;9.300;2022-12-18T10:32:17;-3.50;99.90
31046;DHT22;17711;54.018;9.300;2022-12-18T10:34:47;-3.30;99.90
31046;DHT22;17711;54.018;9.300;2022-12-18T10:37:27;-3.10;99.90
31046;DHT22;17711;54.018;9.300;2022-12-18T10:40:09;-2.90;99.90
31046;DHT22;17711;54.018;9.300;2022-12-18T10:43:04;-2.70;99.90
31046;DHT22;17711;54.018;9.300;2022-12-18T10:45:34;-2.60;99.90
31046;DHT22;17711;54.018;9.300;2022-12-18T10:48:03;-2.50;99.90
31046;DHT22;17711;54.018;9.300;2022-12-18T10:50:34;-2.40;99.90
31046;DHT22;17711;54.018;9.300;2022-12-18T10:53:26;-2.30;99.90
31046;DHT22;17711;54.018;9.300;2022-12-18T10:56:00;-2.30;99.90
31046;DHT22;17711;54.018;9.300;2022-12-18T10:58:31;-2.30;99.90
31046;DHT22;17711;54.018;9.300;2022-12-18T11:01:06;-2.20;99.90
31046;DHT22;17711;54.018;9.300;2022-12-18T11:03:36;-2.20;99.90
31046;DHT22;17711;54.018;9.300;2022-12-18T11:06:07;-2.20;99.90
31046;DHT22;17711;54.018;9.300;2022-12-18T11:08:37;-2.20;99.90
31046;DHT22;17711;54.018;9.300;2022-12-18T11:11:16;-2.10;99.90
31046;DHT22;17711;54.018;9.300;2022-12-18T11:13:56;-2.00;99.90
31046;DHT22;17711;54.018;9.300;2022-12-18T11:16:30;-1.90;99.90
31046;DHT22;17711;54.018;9.300;2022-12-18T11:19:17;-1.90;99.90
31046;DHT22;17711;54.018;9.300;2022-12-18T11:21:49;-1.80;99.90
31046;DHT22;17711;54.018;9.300;2022-12-18T11:24:23;-1.80;99.90
31046;DHT22;17711;54.018;9.300;2022-12-18T11:26:56;-1.70;99.90
31046;DHT22;17711;54.018;9.300;2022-12-18T11:29:33;-1.70;99.90
31046;DHT22;17711;54.018;9.300;2022-12-18T11:32:27;-1.60;99.90
31046;DHT22;17711;54.018;9.300;2022-12-18T11:35:07;-1.60;99.90
31046;DHT22;17711;54.018;9.300;2022-12-18T11:37:40;-1.70;99.90
31046;DHT22;17711;54.018;9.300;2022-12-18T11:40:14;-1.70;99.90
31046;DHT22;17711;54.018;9.300;2022-12-18T11:42:50;-1.70;99.90
31046;DHT22;17711;54.018;9.300;2022-12-18T11:45:26;-1.70;99.90
31046;DHT22;17711;54.018;9.300;2022-12-18T11:48:01;-1.80;99.90
31046;DHT22;17711;54.018;9.300;2022-12-18T11:50:41;-1.80;99.90
31046;DHT22;17711;54.018;9.300;2022-12-18T11:53:13;-1.80;99.90
31046;DHT22;17711;54.018;9.300;2022-12-18T11:55:49;-1.90;99.90
31046;DHT22;17711;54.018;9.300;2022-12-18T11:58:34;-1.90;99.90
31046;DHT22;17711;54.018;9.300;2022-12-18T12:01:13;-1.80;99.90
31046;DHT22;17711;54.018;9.300;2022-12-18T12:04:00;-1.80;99.90
31046;DHT22;17711;54.018;9.300;2022-12-18T12:06:39;-1.80;99.90
31046;DHT22;17711;54.018;9.300;2022-12-18T12:09:17;-1.80;99.90
31046;DHT22;17711;54.018;9.300;2022-12-18T12:11:57;-1.80;99.90
31046;DHT22;17711;54.018;9.300;2022-12-18T12:14:41;-1.90;99.90
31046;DHT22;17711;54.018;9.300;2022-12-18T12:17:17;-1.90;99.90
31046;DHT22;17711;54.018;9.300;2022-12-18T12:19:53;-1.90;99.90
31046;DHT22;17711;54.018;9.300;2022-12-18T12:22:35;-1.90;99.90
31046;DHT22;17711;54.018;9.300;2022-12-18T12:25:18;-1.90;99.90
31046;DHT22;17711;54.018;9.300;2022-12-18T12:27:55;-2.00;99.90
31046;DHT22;17711;54.018;9.300;2022-12-18T12:30:35;-2.00;99.90
31046;DHT22;17711;54.018;9.300;2022-12-18T12:33:17;-1.90;99.90
31046;DHT22;17711;54.018;9.300;2022-12-18T12:35:57;-1.90;99.90
31046;DHT22;17711;54.018;9.300;2022-12-18T12:38:32;-1.90;99.90
31046;DHT22;17711;54.018;9.300;2022-12-18T12:41:05;-1.80;99.90
31046;DHT22;17711;54.018;9.300;2022-12-18T12:43:57;-1.90;99.90
31046;DHT22;17711;54.018;9.300;2022-12-18T12:46:26;-1.90;99.90
31046;DHT22;17711;54.018;9.300;2022-12-18T12:48:56;-1.90;99.90
31046;DHT22;17711;54.018;9.300;2022-12-18T12:51:29;-2.00;99.90
31046;DHT22;17711;54.018;9.300;2022-12-18T12:54:02;-2.00;99.90
31046;DHT22;17711;54.018;9.300;2022-12-18T12:56:39;-2.00;99.90
31046;DHT22;17711;54.018;9.300;2022-12-18T12:59:13;-1.90;99.90
31046;DHT22;17711;54.018;9.300;2022-12-18T13:01:51;-1.80;99.90
31046;DHT22;17711;54.018;9.300;2022-12-18T13:04:27;-1.70;99.90
31046;DHT22;17711;54.018;9.300;2022-12-18T13:07:04;-1.60;99.90
31046;DHT22;17711;54.018;9.300;2022-12-18T13:10:12;-1.60;99.90
31046;DHT22;17711;54.018;9.300;2022-12-18T13:12:55;-1.50;99.90
31046;DHT22;17711;54.018;9.300;2022-12-18T13:15:29;-1.40;99.90
31046;DHT22;17711;54.018;9.300;2022-12-18T13:18:18;-1.40;99.90
31046;DHT22;17711;54.018;9.300;2022-12-18T13:20:49;-1.40;99.90
31046;DHT22;17711;54.018;9.300;2022-12-18T13:23:34;-1.50;99.90
31046;DHT22;17711;54.018;9.300;2022-12-18T13:26:28;-1.60;99.90
31046;DHT22;17711;54.018;9.300;2022-12-18T13:28:58;-1.70;99.90
31046;DHT22;17711;54.018;9.300;2022-12-18T13:34:35;-1.80;99.90
31046;DHT22;17711;54.018;9.300;2022-12-18T13:43:37;-2.00;99.90
31046;DHT22;17711;54.018;9.300;2022-12-18T13:46:22;-2.20;99.90
31046;DHT22;17711;54.018;9.300;2022-12-18T13:48:59;-2.20;99.90
31046;DHT22;17711;54.018;9.300;2022-12-18T13:51:31;-2.30;99.90
31046;DHT22;17711;54.018;9.300;2022-12-18T13:54:05;-2.40;99.90
31046;DHT22;17711;54.018;9.300;2022-12-18T13:56:43;-2.40;99.90
31046;DHT22;17711;54.018;9.300;2022-12-18T13:59:17;-2.40;99.90
31046;DHT22;17711;54.018;9.300;2022-12-18T14:01:53;-2.40;99.90
31046;DHT22;17711;54.018;9.300;2022-12-18T14:04:26;-2.40;99.90
31046;DHT22;17711;54.018;9.300;2022-12-18T14:07:02;-2.40;99.90
31046;DHT22;17711;54.018;9.300;2022-12-18T14:09:36;-2.50;99.90
31046;DHT22;17711;54.018;9.300;2022-12-18T14:12:11;-2.50;99.90
31046;DHT22;17711;54.018;9.300;2022-12-18T14:15:03;-2.60;99.90
31046;DHT22;17711;54.018;9.300;2022-12-18T14:17:36;-2.60;99.90
31046;DHT22;17711;54.018;9.300;2022-12-18T14:20:13;-2.70;99.90
31046;DHT22;17711;54.018;9.300;2022-12-18T14:22:44;-2.80;99.90
31046;DHT22;17711;54.018;9.300;2022-12-18T14:25:18;-2.80;99.90
31046;DHT22;17711;54.018;9.300;2022-12-18T14:27:50;-2.90;99.90
31046;DHT22;17711;54.018;9.300;2022-12-18T14:30:29;-2.90;99.90
31046;DHT22;17711;54.018;9.300;2022-12-18T14:33:03;-3.00;99.90
31046;DHT22;17711;54.018;9.300;2022-12-18T14:35:33;-3.10;99.90
31046;DHT22;17711;54.018;9.300;2022-12-18T14:38:11;-3.20;99.90
31046;DHT22;17711;54.018;9.300;2022-12-18T14:40:46;-3.30;99.90
31046;DHT22;17711;54.018;9.300;2022-12-18T14:43:20;-3.40;99.90
31046;DHT22;17711;54.018;9.300;2022-12-18T14:45:51;-3.50;99.90
31046;DHT22;17711;54.018;9.300;2022-12-18T14:48:22;-3.60;99.90
31046;DHT22;17711;54.018;9.300;2022-12-18T14:50:59;-3.60;99.90
31046;DHT22;17711;54.018;9.300;2022-12-18T14:53:36;-3.60;99.90
31046;DHT22;17711;54.018;9.300;2022-12-18T14:56:16;-3.70;99.90
31046;DHT22;17711;54.018;9.300;2022-12-18T14:58:50;-3.80;99.90
31046;DHT22;17711;54.018;9.300;2022-12-18T15:01:26;-3.80;99.90
31046;DHT22;17711;54.018;9.300;2022-12-18T15:03:57;-3.90;99.90
31046;DHT22;17711;54.018;9.300;2022-12-18T15:06:32;-3.90;99.90
31046;DHT22;17711;54.018;9.300;2022-12-18T15:09:04;-4.00;99.90
31046;DHT22;17711;54.018;9.300;2022-12-18T15:11:45;-4.00;99.90
31046;DHT22;17711;54.018;9.300;2022-12-18T15:14:34;-4.10;99.90
31046;DHT22;17711;54.018;9.300;2022-12-18T15:17:13;-4.20;99.90
31046;DHT22;17711;54.018;9.300;2022-12-18T15:19:44;-4.20;99.90
31046;DHT22;17711;54.018;9.300;2022-12-18T15:22:26;-4.30;99.90
31046;DHT22;17711;54.018;9.300;2022-12-18T15:24:55;-4.30;99.90
31046;DHT22;17711;54.018;9.300;2022-12-18T15:27:30;-4.40;99.90
31046;DHT22;17711;54.018;9.300;2022-12-18T15:30:18;-4.30;99.90
31046;DHT22;17711;54.018;9.300;2022-12-18T15:32:49;-4.30;99.90
31046;DHT22;17711;54.018;9.300;2022-12-18T15:35:20;-4.30;99.90
31046;DHT22;17711;54.018;9.300;2022-12-18T15:37:50;-4.30;99.90
31046;DHT22;17711;54.018;9.300;2022-12-18T15:40:22;-4.30;99.90
31046;DHT22;17711;54.018;9.300;2022-12-18T15:42:53;-4.20;99.90
31046;DHT22;17711;54.018;9.300;2022-12-18T15:45:39;-4.20;99.90
31046;DHT22;17711;54.018;9.300;2022-12-18T15:48:19;-4.20;99.90
31046;DHT22;17711;54.018;9.300;2022-12-18T15:50:50;-4.20;99.90
31046;DHT22;17711;54.018;9.300;2022-12-18T15:53:19;-4.20;99.90
31046;DHT22;17711;54.018;9.300;2022-12-18T15:55:48;-4.10;99.90
31046;DHT22;17711;54.018;9.300;2022-12-18T15:58:34;-4.10;99.90
31046;DHT22;17711;54.018;9.300;2022-12-18T16:01:05;-4.00;99.90
31046;DHT22;17711;54.018;9.300;2022-12-18T16:03:38;-4.00;99.90
31046;DHT22;17711;54.018;9.300;2022-12-18T16:06:09;-3.90;99.90
31046;DHT22;17711;54.018;9.300;2022-12-18T16:08:38;-4.00;99.90
31046;DHT22;17711;54.018;9.300;2022-12-18T16:11:20;-3.90;99.90
31046;DHT22;17711;54.018;9.300;2022-12-18T16:14:16;-3.90;99.90